sensor_id;sensor_type;location;lat;lon;timestamp;temperature;humidity
66343;DHT22;53144;51.524;5.080;2024-02-26T00:02:05;6.85;86.71
66343;DHT22;53144;51.524;5.080;2024-02-26T00:04:30;6.81;86.37
66343;DHT22;53144;51.524;5.080;2024-02-26T00:06:56;6.80;86.43
66343;DHT22;53144;51.524;5.080;2024-02-26T00:09:21;6.84;86.19
66343;DHT22;53144;51.524;5.080;2024-02-26T00:11:47;6.83;86.68
66343;DHT22;53144;51.524;5.080;2024-02-26T00:14:12;6.81;86.71
66343;DHT22;53144;51.524;5.080;2024-02-26T00:16:41;6.76;86.78
66343;DHT22;53144;51.524;5.080;2024-02-26T00:19:07;6.77;86.57
66343;DHT22;53144;51.524;5.080;2024-02-26T00:21:33;6.84;86.58
66343;DHT22;53144;51.524;5.080;2024-02-26T00:23:58;6.84;86.84
66343;DHT22;53144;51.524;5.080;2024-02-26T00:26:23;6.81;86.43
66343;DHT22;53144;51.524;5.080;2024-02-26T00:28:49;6.74;86.64
66343;DHT22;53144;51.524;5.080;2024-02-26T00:31:14;6.76;86.79
66343;DHT22;53144;51.524;5.080;2024-02-26T00:33:39;6.76;86.63
66343;DHT22;53144;51.524;5.080;2024-02-26T00:36:05;6.64;87.14
66343;DHT22;53144;51.524;5.080;2024-02-26T00:38:30;6.67;86.70
66343;DHT22;53144;51.524;5.080;2024-02-26T00:40:56;6.70;86.71
66343;DHT22;53144;51.524;5.080;2024-02-26T00:43:21;6.74;86.06
66343;DHT22;53144;51.524;5.080;2024-02-26T00:45:46;6.66;86.88
66343;DHT22;53144;51.524;5.080;2024-02-26T00:48:12;6.71;86.62
66343;DHT22;53144;51.524;5.080;2024-02-26T00:50:39;6.71;86.82
66343;DHT22;53144;51.524;5.080;2024-02-26T00:53:04;6.73;86.86
66343;DHT22;53144;51.524;5.080;2024-02-26T00:55:30;6.64;87.03
66343;DHT22;53144;51.524;5.080;2024-02-26T00:57:55;6.66;87.57
66343;DHT22;53144;51.524;5.080;2024-02-26T01:00:21;6.66;86.73
66343;DHT22;53144;51.524;5.080;2024-02-26T01:02:46;6.62;87.60
66343;DHT22;53144;51.524;5.080;2024-02-26T01:05:13;6.60;87.65
66343;DHT22;53144;51.524;5.080;2024-02-26T01:07:38;6.64;87.44
66343;DHT22;53144;51.524;5.080;2024-02-26T01:10:08;6.69;87.40
66343;DHT22;53144;51.524;5.080;2024-02-26T01:12:34;6.56;88.10
66343;DHT22;53144;51.524;5.080;2024-02-26T01:15:00;6.62;87.79
66343;DHT22;53144;51.524;5.080;2024-02-26T01:17:25;6.58;88.26
66343;DHT22;53144;51.524;5.080;2024-02-26T01:19:51;6.60;88.08
66343;DHT22;53144;51.524;5.080;2024-02-26T01:22:16;6.54;89.00
66343;DHT22;53144;51.524;5.080;2024-02-26T01:24:41;6.62;88.05
66343;DHT22;53144;51.524;5.080;2024-02-26T01:27:07;6.57;88.76
66343;DHT22;53144;51.524;5.080;2024-02-26T01:29:34;6.62;88.16
66343;DHT22;53144;51.524;5.080;2024-02-26T01:31:59;6.52;88.73
66343;DHT22;53144;51.524;5.080;2024-02-26T01:34:24;6.49;89.47
66343;DHT22;53144;51.524;5.080;2024-02-26T01:36:50;6.58;88.74
66343;DHT22;53144;51.524;5.080;2024-02-26T01:39:15;6.54;89.17
66343;DHT22;53144;51.524;5.080;2024-02-26T01:41:41;6.56;88.43
66343;DHT22;53144;51.524;5.080;2024-02-26T01:44:06;6.57;88.52
66343;DHT22;53144;51.524;5.080;2024-02-26T01:46:34;6.53;89.52
66343;DHT22;53144;51.524;5.080;2024-02-26T01:49:01;6.57;89.69
66343;DHT22;53144;51.524;5.080;2024-02-26T01:51:26;6.50;90.13
66343;DHT22;53144;51.524;5.080;2024-02-26T01:53:52;6.43;90.24
66343;DHT22;53144;51.524;5.080;2024-02-26T01:56:19;6.47;90.33
66343;DHT22;53144;51.524;5.080;2024-02-26T01:58:45;6.47;90.80
66343;DHT22;53144;51.524;5.080;2024-02-26T02:01:11;6.40;91.43
66343;DHT22;53144;51.524;5.080;2024-02-26T02:03:37;6.32;91.87
66343;DHT22;53144;51.524;5.080;2024-02-26T02:06:03;6.26;91.72
66343;DHT22;53144;51.524;5.080;2024-02-26T02:08:29;6.32;92.38
66343;DHT22;53144;51.524;5.080;2024-02-26T02:10:55;6.29;92.25
66343;DHT22;53144;51.524;5.080;2024-02-26T02:13:21;6.29;92.78
66343;DHT22;53144;51.524;5.080;2024-02-26T02:15:47;6.23;93.80
66343;DHT22;53144;51.524;5.080;2024-02-26T02:18:12;6.28;93.86
66343;DHT22;53144;51.524;5.080;2024-02-26T02:20:38;6.12;94.15
66343;DHT22;53144;51.524;5.080;2024-02-26T02:23:03;6.15;94.37
66343;DHT22;53144;51.524;5.080;2024-02-26T02:25:29;6.15;94.70
66343;DHT22;53144;51.524;5.080;2024-02-26T02:27:55;6.12;95.38
66343;DHT22;53144;51.524;5.080;2024-02-26T02:30:25;6.08;95.57
66343;DHT22;53144;51.524;5.080;2024-02-26T02:32:52;6.01;96.40
66343;DHT22;53144;51.524;5.080;2024-02-26T02:35:18;5.98;96.23
66343;DHT22;53144;51.524;5.080;2024-02-26T02:37:43;5.91;96.93
66343;DHT22;53144;51.524;5.080;2024-02-26T02:40:09;5.98;96.72
66343;DHT22;53144;51.524;5.080;2024-02-26T02:42:34;5.95;96.64
66343;DHT22;53144;51.524;5.080;2024-02-26T02:45:00;5.91;97.23
66343;DHT22;53144;51.524;5.080;2024-02-26T02:47:25;5.82;97.20
66343;DHT22;53144;51.524;5.080;2024-02-26T02:49:51;5.84;97.48
66343;DHT22;53144;51.524;5.080;2024-02-26T02:52:16;5.84;97.69
66343;DHT22;53144;51.524;5.080;2024-02-26T02:54:42;5.85;97.68
66343;DHT22;53144;51.524;5.080;2024-02-26T02:57:08;5.78;97.41
66343;DHT22;53144;51.524;5.080;2024-02-26T02:59:33;5.77;98.15
66343;DHT22;53144;51.524;5.080;2024-02-26T03:01:59;5.75;98.05
66343;DHT22;53144;51.524;5.080;2024-02-26T03:04:24;5.77;98.09
66343;DHT22;53144;51.524;5.080;2024-02-26T03:06:49;5.65;98.44
66343;DHT22;53144;51.524;5.080;2024-02-26T03:09:15;5.67;98.59
66343;DHT22;53144;51.524;5.080;2024-02-26T03:11:40;5.70;98.37
66343;DHT22;53144;51.524;5.080;2024-02-26T03:14:06;5.70;98.16
66343;DHT22;53144;51.524;5.080;2024-02-26T03:16:32;5.65;98.21
66343;DHT22;53144;51.524;5.080;2024-02-26T03:18:57;5.58;98.17
66343;DHT22;53144;51.524;5.080;2024-02-26T03:21:25;5.53;98.22
66343;DHT22;53144;51.524;5.080;2024-02-26T03:23:50;5.53;98.51
66343;DHT22;53144;51.524;5.080;2024-02-26T03:26:16;5.46;98.75
66343;DHT22;53144;51.524;5.080;2024-02-26T03:28:42;5.51;98.71
66343;DHT22;53144;51.524;5.080;2024-02-26T03:31:07;5.50;98.69
66343;DHT22;53144;51.524;5.080;2024-02-26T03:33:32;5.47;98.81
66343;DHT22;53144;51.524;5.080;2024-02-26T03:35:58;5.48;98.91
66343;DHT22;53144;51.524;5.080;2024-02-26T03:38:23;5.39;99.12
66343;DHT22;53144;51.524;5.080;2024-02-26T03:40:48;5.48;98.98
66343;DHT22;53144;51.524;5.080;2024-02-26T03:43:14;5.47;99.03
66343;DHT22;53144;51.524;5.080;2024-02-26T03:45:39;5.46;99.01
66343;DHT22;53144;51.524;5.080;2024-02-26T03:48:05;5.46;98.98
66343;DHT22;53144;51.524;5.080;2024-02-26T03:50:31;5.36;99.02
66343;DHT22;53144;51.524;5.080;2024-02-26T03:52:56;5.40;98.80
66343;DHT22;53144;51.524;5.080;2024-02-26T03:55:22;5.34;99.00
66343;DHT22;53144;51.524;5.080;2024-02-26T03:57:53;5.37;99.14
66343;DHT22;53144;51.524;5.080;2024-02-26T04:00:19;5.42;98.88
66343;DHT22;53144;51.524;5.080;2024-02-26T04:02:46;5.42;98.87
66343;DHT22;53144;51.524;5.080;2024-02-26T04:05:13;5.44;98.62
66343;DHT22;53144;51.524;5.080;2024-02-26T04:07:39;5.42;98.94
66343;DHT22;53144;51.524;5.080;2024-02-26T04:10:09;5.32;99.16
66343;DHT22;53144;51.524;5.080;2024-02-26T04:12:34;5.37;99.27
66343;DHT22;53144;51.524;5.080;2024-02-26T04:15:00;5.33;99.25
66343;DHT22;53144;51.524;5.080;2024-02-26T04:17:25;5.37;99.37
66343;DHT22;53144;51.524;5.080;2024-02-26T04:19:51;5.29;99.11
66343;DHT22;53144;51.524;5.080;2024-02-26T04:22:16;5.34;99.26
66343;DHT22;53144;51.524;5.080;2024-02-26T04:24:41;5.23;98.67
66343;DHT22;53144;51.524;5.080;2024-02-26T04:27:07;5.32;99.06
66343;DHT22;53144;51.524;5.080;2024-02-26T04:29:32;5.33;98.87
66343;DHT22;53144;51.524;5.080;2024-02-26T04:31:57;5.32;98.80
66343;DHT22;53144;51.524;5.080;2024-02-26T04:34:23;5.30;99.23
66343;DHT22;53144;51.524;5.080;2024-02-26T04:36:48;5.32;98.69
66343;DHT22;53144;51.524;5.080;2024-02-26T04:39:14;5.37;98.87
66343;DHT22;53144;51.524;5.080;2024-02-26T04:41:39;5.32;98.54
66343;DHT22;53144;51.524;5.080;2024-02-26T04:44:05;5.40;98.56
66343;DHT22;53144;51.524;5.080;2024-02-26T04:46:30;5.29;98.72
66343;DHT22;53144;51.524;5.080;2024-02-26T04:48:56;5.40;98.87
66343;DHT22;53144;51.524;5.080;2024-02-26T04:51:21;5.42;98.25
66343;DHT22;53144;51.524;5.080;2024-02-26T04:53:47;5.44;98.35
66343;DHT22;53144;51.524;5.080;2024-02-26T04:56:12;5.48;98.17
66343;DHT22;53144;51.524;5.080;2024-02-26T04:58:38;5.43;98.38
66343;DHT22;53144;51.524;5.080;2024-02-26T05:01:03;5.46;98.30
66343;DHT22;53144;51.524;5.080;2024-02-26T05:03:29;5.39;98.03
66343;DHT22;53144;51.524;5.080;2024-02-26T05:05:54;5.46;98.25
66343;DHT22;53144;51.524;5.080;2024-02-26T05:08:22;5.46;98.23
66343;DHT22;53144;51.524;5.080;2024-02-26T05:10:50;5.36;98.57
66343;DHT22;53144;51.524;5.080;2024-02-26T05:13:16;5.34;98.23
66343;DHT22;53144;51.524;5.080;2024-02-26T05:15:43;5.40;98.42
66343;DHT22;53144;51.524;5.080;2024-02-26T05:18:09;5.40;98.50
66343;DHT22;53144;51.524;5.080;2024-02-26T05:20:34;5.40;98.31
66343;DHT22;53144;51.524;5.080;2024-02-26T05:23:01;5.46;98.31
66343;DHT22;53144;51.524;5.080;2024-02-26T05:25:27;5.36;98.05
66343;DHT22;53144;51.524;5.080;2024-02-26T05:27:52;5.40;98.27
66343;DHT22;53144;51.524;5.080;2024-02-26T05:30:17;5.43;98.10
66343;DHT22;53144;51.524;5.080;2024-02-26T05:32:43;5.36;98.21
66343;DHT22;53144;51.524;5.080;2024-02-26T05:35:08;5.42;98.37
66343;DHT22;53144;51.524;5.080;2024-02-26T05:37:34;5.39;98.15
66343;DHT22;53144;51.524;5.080;2024-02-26T05:39:59;5.40;97.94
66343;DHT22;53144;51.524;5.080;2024-02-26T05:42:25;5.40;97.81
66343;DHT22;53144;51.524;5.080;2024-02-26T05:44:50;5.39;98.04
66343;DHT22;53144;51.524;5.080;2024-02-26T05:47:16;5.40;98.21
66343;DHT22;53144;51.524;5.080;2024-02-26T05:49:42;5.43;98.06
66343;DHT22;53144;51.524;5.080;2024-02-26T05:52:08;5.42;97.81
66343;DHT22;53144;51.524;5.080;2024-02-26T05:54:33;5.34;97.82
66343;DHT22;53144;51.524;5.080;2024-02-26T05:56:59;5.44;97.65
66343;DHT22;53144;51.524;5.080;2024-02-26T05:59:24;5.37;97.69
66343;DHT22;53144;51.524;5.080;2024-02-26T06:01:50;5.42;97.56
66343;DHT22;53144;51.524;5.080;2024-02-26T06:04:15;5.37;97.50
66343;DHT22;53144;51.524;5.080;2024-02-26T06:06:43;5.34;98.13
66343;DHT22;53144;51.524;5.080;2024-02-26T06:09:09;5.40;97.90
66343;DHT22;53144;51.524;5.080;2024-02-26T06:11:35;5.39;97.58
66343;DHT22;53144;51.524;5.080;2024-02-26T06:14:01;5.47;97.77
66343;DHT22;53144;51.524;5.080;2024-02-26T06:16:26;5.39;97.70
66343;DHT22;53144;51.524;5.080;2024-02-26T06:18:52;5.36;97.67
66343;DHT22;53144;51.524;5.080;2024-02-26T06:21:18;5.39;97.73
66343;DHT22;53144;51.524;5.080;2024-02-26T06:23:43;5.42;97.93
66343;DHT22;53144;51.524;5.080;2024-02-26T06:26:09;5.30;97.90
66343;DHT22;53144;51.524;5.080;2024-02-26T06:28:35;5.32;97.88
66343;DHT22;53144;51.524;5.080;2024-02-26T06:31:01;5.37;97.97
66343;DHT22;53144;51.524;5.080;2024-02-26T06:33:27;5.37;98.29
66343;DHT22;53144;51.524;5.080;2024-02-26T06:35:52;5.37;97.73
66343;DHT22;53144;51.524;5.080;2024-02-26T06:38:17;5.30;98.08
66343;DHT22;53144;51.524;5.080;2024-02-26T06:40:44;5.39;97.80
66343;DHT22;53144;51.524;5.080;2024-02-26T06:43:09;5.33;97.30
66343;DHT22;53144;51.524;5.080;2024-02-26T06:45:35;5.33;97.88
66343;DHT22;53144;51.524;5.080;2024-02-26T06:48:00;5.34;97.69
66343;DHT22;53144;51.524;5.080;2024-02-26T06:50:26;5.29;98.22
66343;DHT22;53144;51.524;5.080;2024-02-26T06:52:51;5.32;98.07
66343;DHT22;53144;51.524;5.080;2024-02-26T06:55:17;5.36;98.18
66343;DHT22;53144;51.524;5.080;2024-02-26T06:57:42;5.36;97.59
66343;DHT22;53144;51.524;5.080;2024-02-26T07:00:08;5.30;98.01
66343;DHT22;53144;51.524;5.080;2024-02-26T07:02:33;5.29;97.75
66343;DHT22;53144;51.524;5.080;2024-02-26T07:04:59;5.37;97.66
66343;DHT22;53144;51.524;5.080;2024-02-26T07:07:25;5.36;97.83
66343;DHT22;53144;51.524;5.080;2024-02-26T07:09:50;5.32;98.19
66343;DHT22;53144;51.524;5.080;2024-02-26T07:12:16;5.33;97.95
66343;DHT22;53144;51.524;5.080;2024-02-26T07:14:41;5.36;98.41
66343;DHT22;53144;51.524;5.080;2024-02-26T07:17:07;5.30;98.17
66343;DHT22;53144;51.524;5.080;2024-02-26T07:19:33;5.27;98.50
66343;DHT22;53144;51.524;5.080;2024-02-26T07:21:59;5.36;98.34
66343;DHT22;53144;51.524;5.080;2024-02-26T07:24:26;5.34;98.41
66343;DHT22;53144;51.524;5.080;2024-02-26T07:26:51;5.29;98.42
66343;DHT22;53144;51.524;5.080;2024-02-26T07:29:20;5.30;98.30
66343;DHT22;53144;51.524;5.080;2024-02-26T07:31:45;5.37;98.46
66343;DHT22;53144;51.524;5.080;2024-02-26T07:34:11;5.29;98.56
66343;DHT22;53144;51.524;5.080;2024-02-26T07:36:36;5.30;98.37
66343;DHT22;53144;51.524;5.080;2024-02-26T07:39:02;5.34;98.50
66343;DHT22;53144;51.524;5.080;2024-02-26T07:41:27;5.34;98.12
66343;DHT22;53144;51.524;5.080;2024-02-26T07:43:52;5.34;98.02
66343;DHT22;53144;51.524;5.080;2024-02-26T07:46:18;5.30;98.46
66343;DHT22;53144;51.524;5.080;2024-02-26T07:48:43;5.24;98.28
66343;DHT22;53144;51.524;5.080;2024-02-26T07:51:11;5.24;98.28
66343;DHT22;53144;51.524;5.080;2024-02-26T07:53:37;5.26;98.26
66343;DHT22;53144;51.524;5.080;2024-02-26T07:56:02;5.34;98.17
66343;DHT22;53144;51.524;5.080;2024-02-26T07:58:28;5.33;98.39
66343;DHT22;53144;51.524;5.080;2024-02-26T08:00:54;5.32;98.03
66343;DHT22;53144;51.524;5.080;2024-02-26T08:03:19;5.33;98.18
66343;DHT22;53144;51.524;5.080;2024-02-26T08:05:44;5.43;98.18
66343;DHT22;53144;51.524;5.080;2024-02-26T08:08:10;5.32;98.01
66343;DHT22;53144;51.524;5.080;2024-02-26T08:10:35;5.32;98.04
66343;DHT22;53144;51.524;5.080;2024-02-26T08:13:01;5.26;98.10
66343;DHT22;53144;51.524;5.080;2024-02-26T08:15:34;5.29;98.18
66343;DHT22;53144;51.524;5.080;2024-02-26T08:18:00;5.33;98.68
66343;DHT22;53144;51.524;5.080;2024-02-26T08:20:29;5.36;98.66
66343;DHT22;53144;51.524;5.080;2024-02-26T08:22:55;5.33;98.44
66343;DHT22;53144;51.524;5.080;2024-02-26T08:25:20;5.37;98.70
66343;DHT22;53144;51.524;5.080;2024-02-26T08:27:45;5.42;98.30
66343;DHT22;53144;51.524;5.080;2024-02-26T08:30:13;5.37;98.46
66343;DHT22;53144;51.524;5.080;2024-02-26T08:32:41;5.29;98.69
66343;DHT22;53144;51.524;5.080;2024-02-26T08:35:07;5.30;98.69
66343;DHT22;53144;51.524;5.080;2024-02-26T08:37:33;5.23;98.84
66343;DHT22;53144;51.524;5.080;2024-02-26T08:39:58;5.33;99.23
66343;DHT22;53144;51.524;5.080;2024-02-26T08:42:24;5.34;98.76
66343;DHT22;53144;51.524;5.080;2024-02-26T08:44:52;5.32;98.70
66343;DHT22;53144;51.524;5.080;2024-02-26T08:47:19;5.32;98.90
66343;DHT22;53144;51.524;5.080;2024-02-26T08:49:45;5.29;98.39
66343;DHT22;53144;51.524;5.080;2024-02-26T08:52:11;5.26;98.56
66343;DHT22;53144;51.524;5.080;2024-02-26T08:54:37;5.34;98.73
66343;DHT22;53144;51.524;5.080;2024-02-26T08:57:02;5.37;98.85
66343;DHT22;53144;51.524;5.080;2024-02-26T08:59:28;5.37;98.63
66343;DHT22;53144;51.524;5.080;2024-02-26T09:01:54;5.37;98.54
66343;DHT22;53144;51.524;5.080;2024-02-26T09:04:20;5.37;98.79
66343;DHT22;53144;51.524;5.080;2024-02-26T09:06:46;5.36;98.63
66343;DHT22;53144;51.524;5.080;2024-02-26T09:09:12;5.32;98.78
66343;DHT22;53144;51.524;5.080;2024-02-26T09:11:37;5.37;98.95
66343;DHT22;53144;51.524;5.080;2024-02-26T09:14:03;5.37;99.16
66343;DHT22;53144;51.524;5.080;2024-02-26T09:16:30;5.46;98.76
66343;DHT22;53144;51.524;5.080;2024-02-26T09:18:56;5.40;98.47
66343;DHT22;53144;51.524;5.080;2024-02-26T09:21:21;5.37;99.02
66343;DHT22;53144;51.524;5.080;2024-02-26T09:23:52;5.44;98.62
66343;DHT22;53144;51.524;5.080;2024-02-26T09:26:18;5.36;98.96
66343;DHT22;53144;51.524;5.080;2024-02-26T09:28:44;5.42;98.77
66343;DHT22;53144;51.524;5.080;2024-02-26T09:31:10;5.42;98.73
66343;DHT22;53144;51.524;5.080;2024-02-26T09:33:36;5.43;98.62
66343;DHT22;53144;51.524;5.080;2024-02-26T09:36:02;5.40;98.69
66343;DHT22;53144;51.524;5.080;2024-02-26T09:38:27;5.47;99.06
66343;DHT22;53144;51.524;5.080;2024-02-26T09:40:53;5.50;98.84
66343;DHT22;53144;51.524;5.080;2024-02-26T09:43:21;5.44;98.95
66343;DHT22;53144;51.524;5.080;2024-02-26T09:45:50;5.42;98.71
66343;DHT22;53144;51.524;5.080;2024-02-26T09:48:17;5.46;99.00
66343;DHT22;53144;51.524;5.080;2024-02-26T09:50:43;5.42;98.85
66343;DHT22;53144;51.524;5.080;2024-02-26T09:53:10;5.50;98.76
66343;DHT22;53144;51.524;5.080;2024-02-26T09:55:36;5.51;98.77
66343;DHT22;53144;51.524;5.080;2024-02-26T09:58:04;5.47;98.78
66343;DHT22;53144;51.524;5.080;2024-02-26T10:00:30;5.53;98.86
66343;DHT22;53144;51.524;5.080;2024-02-26T10:03:02;5.51;98.77
66343;DHT22;53144;51.524;5.080;2024-02-26T10:05:29;5.54;98.72
66343;DHT22;53144;51.524;5.080;2024-02-26T10:07:55;5.51;99.13
66343;DHT22;53144;51.524;5.080;2024-02-26T10:10:24;5.55;99.21
66343;DHT22;53144;51.524;5.080;2024-02-26T10:12:50;5.57;98.68
66343;DHT22;53144;51.524;5.080;2024-02-26T10:15:16;5.60;98.98
66343;DHT22;53144;51.524;5.080;2024-02-26T10:17:41;5.58;99.05
66343;DHT22;53144;51.524;5.080;2024-02-26T10:20:14;5.48;98.83
66343;DHT22;53144;51.524;5.080;2024-02-26T10:22:44;5.51;98.91
66343;DHT22;53144;51.524;5.080;2024-02-26T10:25:09;5.46;99.02
66343;DHT22;53144;51.524;5.080;2024-02-26T10:27:35;5.51;99.10
66343;DHT22;53144;51.524;5.080;2024-02-26T10:30:12;5.53;98.89
66343;DHT22;53144;51.524;5.080;2024-02-26T10:32:40;5.60;99.30
66343;DHT22;53144;51.524;5.080;2024-02-26T10:35:08;5.64;99.35
66343;DHT22;53144;51.524;5.080;2024-02-26T10:37:34;5.48;99.18
66343;DHT22;53144;51.524;5.080;2024-02-26T10:39:59;5.54;99.29
66343;DHT22;53144;51.524;5.080;2024-02-26T10:42:25;5.58;99.22
66343;DHT22;53144;51.524;5.080;2024-02-26T10:44:51;5.55;99.28
66343;DHT22;53144;51.524;5.080;2024-02-26T10:47:16;5.55;99.43
66343;DHT22;53144;51.524;5.080;2024-02-26T10:49:46;5.54;99.25
66343;DHT22;53144;51.524;5.080;2024-02-26T10:52:13;5.55;99.22
66343;DHT22;53144;51.524;5.080;2024-02-26T10:54:41;5.64;99.24
66343;DHT22;53144;51.524;5.080;2024-02-26T10:57:08;5.61;99.06
66343;DHT22;53144;51.524;5.080;2024-02-26T10:59:35;5.63;99.23
66343;DHT22;53144;51.524;5.080;2024-02-26T11:02:02;5.67;99.21
66343;DHT22;53144;51.524;5.080;2024-02-26T11:04:29;5.64;98.79
66343;DHT22;53144;51.524;5.080;2024-02-26T11:06:57;5.60;98.79
66343;DHT22;53144;51.524;5.080;2024-02-26T11:09:23;5.60;99.14
66343;DHT22;53144;51.524;5.080;2024-02-26T11:11:50;5.60;99.28
66343;DHT22;53144;51.524;5.080;2024-02-26T11:14:20;5.63;99.63
66343;DHT22;53144;51.524;5.080;2024-02-26T11:16:47;5.57;99.37
66343;DHT22;53144;51.524;5.080;2024-02-26T11:19:13;5.58;99.31
66343;DHT22;53144;51.524;5.080;2024-02-26T11:21:39;5.64;99.33
66343;DHT22;53144;51.524;5.080;2024-02-26T11:24:15;5.57;99.33
66343;DHT22;53144;51.524;5.080;2024-02-26T11:26:46;5.50;99.08
66343;DHT22;53144;51.524;5.080;2024-02-26T11:29:16;5.50;99.77
66343;DHT22;53144;51.524;5.080;2024-02-26T11:31:42;5.54;99.65
66343;DHT22;53144;51.524;5.080;2024-02-26T11:34:09;5.57;99.92
66343;DHT22;53144;51.524;5.080;2024-02-26T11:36:36;5.54;99.39
66343;DHT22;53144;51.524;5.080;2024-02-26T11:39:04;5.53;99.62
66343;DHT22;53144;51.524;5.080;2024-02-26T11:41:29;5.63;99.89
66343;DHT22;53144;51.524;5.080;2024-02-26T11:44:00;5.60;99.76
66343;DHT22;53144;51.524;5.080;2024-02-26T11:46:52;5.58;99.27
66343;DHT22;53144;51.524;5.080;2024-02-26T11:51:54;5.55;99.57
66343;DHT22;53144;51.524;5.080;2024-02-26T11:54:39;5.55;99.58
66343;DHT22;53144;51.524;5.080;2024-02-26T11:57:20;5.51;99.24
66343;DHT22;53144;51.524;5.080;2024-02-26T11:59:47;5.61;99.24
66343;DHT22;53144;51.524;5.080;2024-02-26T12:02:18;5.54;99.19
66343;DHT22;53144;51.524;5.080;2024-02-26T12:04:58;5.58;99.40
66343;DHT22;53144;51.524;5.080;2024-02-26T12:07:23;5.58;99.18
66343;DHT22;53144;51.524;5.080;2024-02-26T12:09:49;5.58;99.26
66343;DHT22;53144;51.524;5.080;2024-02-26T12:12:18;5.60;99.82
66343;DHT22;53144;51.524;5.080;2024-02-26T12:14:52;5.58;99.42
66343;DHT22;53144;51.524;5.080;2024-02-26T12:17:23;5.64;99.49
66343;DHT22;53144;51.524;5.080;2024-02-26T12:19:49;5.57;99.39
66343;DHT22;53144;51.524;5.080;2024-02-26T12:22:15;5.64;99.23
66343;DHT22;53144;51.524;5.080;2024-02-26T12:24:42;5.57;99.43
66343;DHT22;53144;51.524;5.080;2024-02-26T12:27:07;5.67;99.43
66343;DHT22;53144;51.524;5.080;2024-02-26T12:29:33;5.64;99.27
66343;DHT22;53144;51.524;5.080;2024-02-26T12:31:59;5.60;99.26
66343;DHT22;53144;51.524;5.080;2024-02-26T12:34:24;5.61;98.95
66343;DHT22;53144;51.524;5.080;2024-02-26T12:36:50;5.61;98.95
66343;DHT22;53144;51.524;5.080;2024-02-26T12:39:16;5.64;99.06
66343;DHT22;53144;51.524;5.080;2024-02-26T12:41:41;5.54;99.15
66343;DHT22;53144;51.524;5.080;2024-02-26T12:44:14;5.64;99.21
66343;DHT22;53144;51.524;5.080;2024-02-26T12:46:40;5.67;99.39
66343;DHT22;53144;51.524;5.080;2024-02-26T12:49:06;5.74;99.01
66343;DHT22;53144;51.524;5.080;2024-02-26T12:51:33;5.71;99.22
66343;DHT22;53144;51.524;5.080;2024-02-26T12:53:58;5.74;98.92
66343;DHT22;53144;51.524;5.080;2024-02-26T12:56:25;5.71;99.03
66343;DHT22;53144;51.524;5.080;2024-02-26T12:58:53;5.70;98.69
66343;DHT22;53144;51.524;5.080;2024-02-26T13:01:19;5.73;99.43
66343;DHT22;53144;51.524;5.080;2024-02-26T13:03:47;5.71;99.20
66343;DHT22;53144;51.524;5.080;2024-02-26T13:06:12;5.73;99.09
66343;DHT22;53144;51.524;5.080;2024-02-26T13:08:38;5.73;98.78
66343;DHT22;53144;51.524;5.080;2024-02-26T13:11:04;5.81;98.91
66343;DHT22;53144;51.524;5.080;2024-02-26T13:13:29;5.74;98.84
66343;DHT22;53144;51.524;5.080;2024-02-26T13:16:07;5.74;99.09
66343;DHT22;53144;51.524;5.080;2024-02-26T13:18:34;5.75;99.21
66343;DHT22;53144;51.524;5.080;2024-02-26T13:21:10;5.79;98.88
66343;DHT22;53144;51.524;5.080;2024-02-26T13:23:37;5.81;99.29
66343;DHT22;53144;51.524;5.080;2024-02-26T13:26:03;5.78;98.83
66343;DHT22;53144;51.524;5.080;2024-02-26T13:28:28;5.71;99.06
66343;DHT22;53144;51.524;5.080;2024-02-26T13:30:54;5.70;99.22
66343;DHT22;53144;51.524;5.080;2024-02-26T13:33:25;5.60;98.68
66343;DHT22;53144;51.524;5.080;2024-02-26T13:35:51;5.71;99.02
66343;DHT22;53144;51.524;5.080;2024-02-26T13:38:18;5.74;99.09
66343;DHT22;53144;51.524;5.080;2024-02-26T13:40:43;5.70;98.94
66343;DHT22;53144;51.524;5.080;2024-02-26T13:43:09;5.68;99.39
66343;DHT22;53144;51.524;5.080;2024-02-26T13:45:35;5.68;99.15
66343;DHT22;53144;51.524;5.080;2024-02-26T13:48:02;5.70;99.47
66343;DHT22;53144;51.524;5.080;2024-02-26T13:50:28;5.73;99.24
66343;DHT22;53144;51.524;5.080;2024-02-26T13:52:54;5.71;98.99
66343;DHT22;53144;51.524;5.080;2024-02-26T13:55:25;5.70;99.04
66343;DHT22;53144;51.524;5.080;2024-02-26T13:57:52;5.73;99.22
66343;DHT22;53144;51.524;5.080;2024-02-26T14:00:19;5.77;98.85
66343;DHT22;53144;51.524;5.080;2024-02-26T14:02:44;5.75;98.36
66343;DHT22;53144;51.524;5.080;2024-02-26T14:05:10;5.71;98.81
66343;DHT22;53144;51.524;5.080;2024-02-26T14:07:36;5.77;99.38
66343;DHT22;53144;51.524;5.080;2024-02-26T14:10:01;5.82;99.17
66343;DHT22;53144;51.524;5.080;2024-02-26T14:12:27;5.75;99.09
66343;DHT22;53144;51.524;5.080;2024-02-26T14:14:53;5.77;99.09
66343;DHT22;53144;51.524;5.080;2024-02-26T14:17:20;5.79;98.90
66343;DHT22;53144;51.524;5.080;2024-02-26T14:19:46;5.77;99.15
66343;DHT22;53144;51.524;5.080;2024-02-26T14:22:14;5.82;99.19
66343;DHT22;53144;51.524;5.080;2024-02-26T14:24:40;5.82;98.86
66343;DHT22;53144;51.524;5.080;2024-02-26T14:27:08;5.85;99.19
66343;DHT22;53144;51.524;5.080;2024-02-26T14:29:33;5.74;98.99
66343;DHT22;53144;51.524;5.080;2024-02-26T14:31:59;5.79;99.31
66343;DHT22;53144;51.524;5.080;2024-02-26T14:34:26;5.79;98.84
66343;DHT22;53144;51.524;5.080;2024-02-26T14:36:52;5.74;99.50
66343;DHT22;53144;51.524;5.080;2024-02-26T14:39:17;5.71;99.37
66343;DHT22;53144;51.524;5.080;2024-02-26T14:41:43;5.82;99.65
66343;DHT22;53144;51.524;5.080;2024-02-26T14:44:08;5.74;99.05
66343;DHT22;53144;51.524;5.080;2024-02-26T14:46:34;5.77;99.01
66343;DHT22;53144;51.524;5.080;2024-02-26T14:48:59;5.87;99.16
66343;DHT22;53144;51.524;5.080;2024-02-26T14:51:24;5.87;99.04
66343;DHT22;53144;51.524;5.080;2024-02-26T14:53:50;5.88;98.77
66343;DHT22;53144;51.524;5.080;2024-02-26T14:56:17;5.81;98.79
66343;DHT22;53144;51.524;5.080;2024-02-26T14:58:42;5.85;98.59
66343;DHT22;53144;51.524;5.080;2024-02-26T15:01:07;5.84;98.50
66343;DHT22;53144;51.524;5.080;2024-02-26T15:03:33;5.87;98.66
66343;DHT22;53144;51.524;5.080;2024-02-26T15:05:58;5.84;98.95
66343;DHT22;53144;51.524;5.080;2024-02-26T15:08:24;5.88;98.71
66343;DHT22;53144;51.524;5.080;2024-02-26T15:10:49;5.85;99.20
66343;DHT22;53144;51.524;5.080;2024-02-26T15:13:15;5.88;98.71
66343;DHT22;53144;51.524;5.080;2024-02-26T15:15:41;5.97;99.00
66343;DHT22;53144;51.524;5.080;2024-02-26T15:18:07;5.98;98.94
66343;DHT22;53144;51.524;5.080;2024-02-26T15:20:33;6.02;98.67
66343;DHT22;53144;51.524;5.080;2024-02-26T15:22:59;6.01;98.69
66343;DHT22;53144;51.524;5.080;2024-02-26T15:25:25;6.04;98.68
66343;DHT22;53144;51.524;5.080;2024-02-26T15:27:50;5.98;98.73
66343;DHT22;53144;51.524;5.080;2024-02-26T15:30:15;5.94;98.64
66343;DHT22;53144;51.524;5.080;2024-02-26T15:32:41;5.91;98.00
66343;DHT22;53144;51.524;5.080;2024-02-26T15:35:09;5.88;98.48
66343;DHT22;53144;51.524;5.080;2024-02-26T15:37:35;5.92;98.67
66343;DHT22;53144;51.524;5.080;2024-02-26T15:40:00;5.95;98.97
66343;DHT22;53144;51.524;5.080;2024-02-26T15:42:26;5.92;98.34